Time;durP1;ratioP1;P1;durP2;ratioP2;P2;SDS_P1;SDS_P2;PMS_P1;PMS_P2;Temp;Humidity;BMP_temperature;BMP_pressure;BME280_temperature;BME280_humidity;BME280_pressure;Samples;Min_cycle;Max_cycle;Signal;HPM_P1;HPM_P2
2022/08/07 00:02:24;;;;;;;0.93;0.70;;;18.20;99.90;;;;;;4976014;28;20623;-70
2022/08/07 00:04:51;;;;;;;0.93;0.70;;;18.70;99.90;;;;;;4982783;28;20225;-69
2022/08/07 00:07:19;;;;;;;0.80;0.60;;;18.50;99.90;;;;;;4996423;28;20238;-71
2022/08/07 00:09:46;;;;;;;2.17;0.50;;;18.80;99.90;;;;;;4997384;28;20658;-70
2022/08/07 00:12:13;;;;;;;1.40;0.50;;;18.70;99.90;;;;;;4993969;28;20222;-71
2022/08/07 00:14:41;;;;;;;0.40;0.30;;;18.80;99.90;;;;;;4981270;28;20664;-71
2022/08/07 00:17:08;;;;;;;0.50;0.50;;;18.90;99.90;;;;;;4978984;28;20174;-71
2022/08/07 00:19:36;;;;;;;1.07;0.40;;;19.10;99.90;;;;;;4996882;28;20240;-70
2022/08/07 00:22:03;;;;;;;0.30;0.30;;;18.60;99.90;;;;;;4996734;28;20180;-69
2022/08/07 00:24:31;;;;;;;0.87;0.37;;;18.90;99.90;;;;;;4997107;28;20689;-72
2022/08/07 00:26:58;;;;;;;0.40;0.40;;;19.30;99.90;;;;;;4995286;28;20183;-70
2022/08/07 00:29:28;;;;;;;2.30;0.50;;;19.70;99.90;;;;;;4978849;28;20274;-71
2022/08/07 00:31:58;;;;;;;0.30;0.30;;;19.50;99.90;;;;;;4979321;28;20175;-72
2022/08/07 00:34:26;;;;;;;0.43;0.43;;;19.50;99.90;;;;;;4996849;28;20679;-71
2022/08/07 00:36:57;;;;;;;0.40;0.40;;;19.70;99.90;;;;;;4997083;28;20194;-70
2022/08/07 00:39:24;;;;;;;0.30;0.30;;;19.50;99.90;;;;;;4989704;28;20279;-71
2022/08/07 00:41:59;;;;;;;1.63;0.40;;;20.00;99.90;;;;;;4978397;28;20634;-71
2022/08/07 00:44:26;;;;;;;1.00;0.47;;;20.30;99.90;;;;;;4996336;28;20302;-70
2022/08/07 00:46:54;;;;;;;0.50;0.30;;;19.90;99.90;;;;;;4984481;28;20192;-72
2022/08/07 00:49:21;;;;;;;0.40;0.40;;;19.80;99.90;;;;;;4977234;28;20183;-72
2022/08/07 00:51:48;;;;;;;0.30;0.30;;;19.80;99.90;;;;;;4977215;28;20186;-69
2022/08/07 00:54:16;;;;;;;0.30;0.30;;;19.80;99.90;;;;;;4996587;28;20633;-69
2022/08/07 00:56:43;;;;;;;0.30;0.30;;;20.00;99.90;;;;;;4995464;28;20193;-71
2022/08/07 00:59:10;;;;;;;0.40;0.40;;;19.90;99.90;;;;;;4996617;28;20650;-71
2022/08/07 01:01:38;;;;;;;0.30;0.30;;;20.00;99.90;;;;;;4996666;28;20235;-72
2022/08/07 01:04:07;;;;;;;1.80;0.40;;;19.60;99.90;;;;;;4979095;28;20248;-71
2022/08/07 01:06:34;;;;;;;0.77;0.33;;;19.90;99.90;;;;;;4981906;28;20611;-71
2022/08/07 01:09:03;;;;;;;0.20;0.20;;;20.40;99.90;;;;;;4995471;28;20277;-72
2022/08/07 01:11:31;;;;;;;0.43;0.30;;;21.30;99.90;;;;;;4996495;28;20264;-72
2022/08/07 01:13:59;;;;;;;0.37;0.37;;;21.10;99.90;;;;;;4994791;28;20257;-70
2022/08/07 01:16:27;;;;;;;0.87;0.20;;;21.20;99.90;;;;;;4978742;28;20646;-69
2022/08/07 01:18:56;;;;;;;2.30;0.20;;;20.70;99.90;;;;;;4987411;28;20303;-69
2022/08/07 01:21:24;;;;;;;0.50;0.30;;;20.20;99.90;;;;;;4976839;28;20606;-69
2022/08/07 01:23:53;;;;;;;0.53;0.30;;;20.70;99.90;;;;;;4985585;28;20225;-70
2022/08/07 01:26:22;;;;;;;0.70;0.40;;;21.30;99.90;;;;;;4985543;28;20201;-72
2022/08/07 01:28:51;;;;;;;0.20;0.20;;;21.80;99.90;;;;;;4991704;28;20597;-73
2022/08/07 01:31:20;;;;;;;0.30;0.30;;;21.30;99.90;;;;;;4994691;28;20188;-73
2022/08/07 01:33:48;;;;;;;0.20;0.20;;;21.40;99.90;;;;;;4975431;28;20732;-73
2022/08/07 01:36:15;;;;;;;0.20;0.20;;;21.70;99.90;;;;;;4975757;28;20194;-72
2022/08/07 01:38:47;;;;;;;0.30;0.20;;;21.80;97.80;;;;;;4974986;28;20215;-73
2022/08/07 01:41:19;;;;;;;0.73;0.30;;;21.70;99.40;;;;;;4975639;28;20187;-72
2022/08/07 01:43:47;;;;;;;0.20;0.20;;;21.00;99.90;;;;;;4977664;28;20206;-71
2022/08/07 01:46:17;;;;;;;0.87;0.40;;;21.60;99.90;;;;;;4981587;28;20213;-70
2022/08/07 01:48:47;;;;;;;0.20;0.20;;;21.70;98.70;;;;;;5005194;28;20226;-72
2022/08/07 01:51:24;;;;;;;0.30;0.30;;;21.40;99.90;;;;;;4994661;28;20198;-69
2022/08/07 01:53:57;;;;;;;0.40;0.40;;;20.80;99.90;;;;;;4994573;28;20548;-70
2022/08/07 01:56:31;;;;;;;0.30;0.30;;;20.50;99.90;;;;;;4994503;28;20269;-70
2022/08/07 01:59:07;;;;;;;1.27;0.40;;;20.50;99.90;;;;;;4993531;28;20180;-71
2022/08/07 02:01:50;;;;;;;0.50;0.37;;;21.20;99.90;;;;;;4994831;28;20186;-71
2022/08/07 02:04:38;;;;;;;0.30;0.30;;;21.70;99.90;;;;;;4982722;28;20225;-71
2022/08/07 02:07:07;;;;;;;0.40;0.30;;;22.50;98.10;;;;;;4975077;28;20262;-71
2022/08/07 02:09:35;;;;;;;0.20;0.20;;;23.20;95.10;;;;;;4974745;28;20250;-70
2022/08/07 02:12:15;;;;;;;0.20;0.20;;;23.00;92.10;;;;;;4974490;28;20190;-70
2022/08/07 02:14:53;;;;;;;0.20;0.20;;;22.70;94.60;;;;;;4975214;28;20182;-70
2022/08/07 02:17:21;;;;;;;0.30;0.30;;;21.50;93.60;;;;;;4976850;28;20179;-71
2022/08/07 02:19:50;;;;;;;1.70;0.37;;;21.00;98.10;;;;;;4987700;28;20205;-71
2022/08/07 02:22:19;;;;;;;0.37;0.37;;;20.80;99.90;;;;;;4994151;28;20210;-71
2022/08/07 02:24:50;;;;;;;0.30;0.30;;;20.60;99.90;;;;;;4961823;28;20289;-70
2022/08/07 02:27:21;;;;;;;0.20;0.20;;;20.90;99.70;;;;;;4974876;28;20242;-70
2022/08/07 02:29:51;;;;;;;0.73;0.33;;;21.50;99.90;;;;;;4974709;28;20233;-70
2022/08/07 02:32:19;;;;;;;0.37;0.33;;;21.10;95.10;;;;;;4968514;28;20195;-70
2022/08/07 02:34:48;;;;;;;0.57;0.40;;;20.40;98.70;;;;;;4993918;28;20214;-72
2022/08/07 02:37:19;;;;;;;0.70;0.40;;;19.80;99.90;;;;;;4994088;28;20181;-70
2022/08/07 02:39:51;;;;;;;0.30;0.30;;;19.30;99.90;;;;;;4980516;28;20206;-70
2022/08/07 02:42:20;;;;;;;0.30;0.30;;;19.80;99.90;;;;;;4974624;28;20340;-73
2022/08/07 02:44:50;;;;;;;0.30;0.30;;;21.10;99.90;;;;;;4974417;28;20649;-71
2022/08/07 02:47:18;;;;;;;0.27;0.27;;;21.80;98.70;;;;;;4974537;28;20226;-72
2022/08/07 02:49:46;;;;;;;0.20;0.20;;;22.50;94.00;;;;;;4974942;28;20187;-70
2022/08/07 02:52:20;;;;;;;0.40;0.40;;;22.00;93.50;;;;;;4974523;28;20178;-71
2022/08/07 02:54:50;;;;;;;0.80;0.40;;;21.90;93.40;;;;;;4974481;28;20549;-71
2022/08/07 02:57:20;;;;;;;0.40;0.40;;;21.90;91.40;;;;;;4978724;28;20186;-69
2022/08/07 02:59:50;;;;;;;0.30;0.20;;;21.80;91.00;;;;;;4957946;28;20197;-71
2022/08/07 03:02:18;;;;;;;0.30;0.30;;;21.90;85.50;;;;;;4984889;28;20175;-72
2022/08/07 03:04:47;;;;;;;0.30;0.30;;;21.80;91.60;;;;;;4993303;28;20219;-73
2022/08/07 03:07:17;;;;;;;0.40;0.40;;;22.20;93.90;;;;;;4993541;28;20178;-72
2022/08/07 03:09:45;;;;;;;1.20;0.60;;;22.80;86.50;;;;;;4991909;28;20189;-72
2022/08/07 03:12:15;;;;;;;1.73;0.27;;;22.80;90.60;;;;;;4993883;28;20194;-69
2022/08/07 03:14:43;;;;;;;0.40;0.40;;;23.00;89.40;;;;;;4994808;28;20206;-70
2022/08/07 03:17:12;;;;;;;0.30;0.30;;;23.20;77.20;;;;;;4977475;28;20193;-68
2022/08/07 03:19:40;;;;;;;0.33;0.30;;;22.90;89.20;;;;;;4987920;28;20598;-70
2022/08/07 03:22:09;;;;;;;0.20;0.20;;;22.80;77.70;;;;;;4973845;28;20187;-73
2022/08/07 03:24:36;;;;;;;0.30;0.30;;;22.40;73.80;;;;;;4974709;28;20678;-73
2022/08/07 03:27:06;;;;;;;0.40;0.37;;;22.00;88.70;;;;;;4973795;28;20201;-69
2022/08/07 03:29:39;;;;;;;0.70;0.60;;;22.30;94.50;;;;;;4974280;28;20712;-70
2022/08/07 03:32:11;;;;;;;3.03;0.50;;;21.70;99.90;;;;;;4992641;28;20618;-69
2022/08/07 03:34:40;;;;;;;0.67;0.40;;;20.30;99.90;;;;;;4993075;28;20170;-73
2022/08/07 03:37:10;;;;;;;0.30;0.30;;;19.70;99.90;;;;;;4983322;28;20187;-73
2022/08/07 03:39:40;;;;;;;0.50;0.50;;;19.60;99.90;;;;;;4977165;28;20202;-73
2022/08/07 03:42:10;;;;;;;1.60;0.50;;;20.40;99.90;;;;;;4976081;28;20210;-72
2022/08/07 03:44:40;;;;;;;0.50;0.50;;;21.00;99.90;;;;;;4974868;28;20701;-69
2022/08/07 03:47:13;;;;;;;0.30;0.30;;;21.60;99.90;;;;;;4977234;28;20231;-72
2022/08/07 03:49:41;;;;;;;0.30;0.30;;;21.90;99.90;;;;;;4973704;28;20206;-72
2022/08/07 03:52:11;;;;;;;0.53;0.40;;;22.10;99.90;;;;;;4973510;28;20188;-72
2022/08/07 03:54:38;;;;;;;0.70;0.33;;;21.70;99.90;;;;;;4973560;28;20262;-69
2022/08/07 03:57:06;;;;;;;0.33;0.30;;;21.60;93.80;;;;;;4974296;28;20210;-69
2022/08/07 03:59:34;;;;;;;0.40;0.40;;;21.40;90.90;;;;;;4973349;28;20183;-70
2022/08/07 04:02:02;;;;;;;1.90;0.40;;;20.70;97.80;;;;;;4973523;28;20204;-68
2022/08/07 04:04:29;;;;;;;1.13;0.47;;;20.00;99.90;;;;;;4972363;28;20334;-69
2022/08/07 04:06:57;;;;;;;1.10;0.77;;;19.50;99.90;;;;;;4973440;28;20199;-68
2022/08/07 04:09:27;;;;;;;0.50;0.50;;;19.30;99.90;;;;;;4973439;28;20180;-69
2022/08/07 04:11:55;;;;;;;0.40;0.40;;;19.10;99.90;;;;;;4973711;28;20207;-70
2022/08/07 04:14:25;;;;;;;0.60;0.60;;;18.80;99.90;;;;;;4973046;28;20241;-67
2022/08/07 04:16:53;;;;;;;0.40;0.40;;;19.30;99.90;;;;;;4973491;28;20206;-67
2022/08/07 04:19:20;;;;;;;0.40;0.40;;;19.90;99.90;;;;;;4973678;28;20185;-70
2022/08/07 04:21:48;;;;;;;0.30;0.30;;;20.30;98.70;;;;;;4973540;28;20181;-71
2022/08/07 04:24:16;;;;;;;0.60;0.50;;;20.20;99.90;;;;;;4973341;28;20209;-70
2022/08/07 04:26:43;;;;;;;0.33;0.33;;;20.50;99.90;;;;;;4973648;28;20696;-69
2022/08/07 04:29:11;;;;;;;0.50;0.50;;;19.70;99.90;;;;;;4973343;28;20177;-71
2022/08/07 04:31:43;;;;;;;0.50;0.43;;;19.00;99.90;;;;;;4988237;28;20206;-72
2022/08/07 04:34:10;;;;;;;0.50;0.50;;;18.60;99.90;;;;;;4973985;28;20175;-68
2022/08/07 04:36:39;;;;;;;0.30;0.30;;;18.40;99.90;;;;;;4973504;28;20260;-73
2022/08/07 04:39:06;;;;;;;0.63;0.40;;;18.20;99.90;;;;;;4973448;28;20184;-68
2022/08/07 04:41:34;;;;;;;0.30;0.30;;;17.80;99.90;;;;;;4973276;28;20184;-67
2022/08/07 04:44:02;;;;;;;0.30;0.30;;;17.50;99.90;;;;;;4973064;28;20655;-73
2022/08/07 04:46:44;;;;;;;0.30;0.30;;;17.40;99.90;;;;;;4973837;28;20213;-69
2022/08/07 04:49:12;;;;;;;0.30;0.30;;;17.30;99.90;;;;;;4973474;28;20206;-68
2022/08/07 04:52:07;;;;;;;0.60;0.30;;;17.30;99.90;;;;;;4973273;28;20310;-70
2022/08/07 04:54:51;;;;;;;0.30;0.30;;;17.50;99.90;;;;;;4977589;28;20175;-70
2022/08/07 04:57:31;;;;;;;0.30;0.30;;;17.50;99.90;;;;;;4977068;28;20519;-69
2022/08/07 05:00:09;;;;;;;0.40;0.40;;;17.80;99.90;;;;;;4976415;28;20586;-68
2022/08/07 05:02:58;;;;;;;0.40;0.40;;;18.20;99.90;;;;;;4977021;28;20171;-72
2022/08/07 05:05:42;;;;;;;0.40;0.33;;;18.80;99.90;;;;;;4976695;28;20242;-73
2022/08/07 05:08:40;;;;;;;0.40;0.40;;;19.10;99.90;;;;;;4976726;28;20206;-71
2022/08/07 05:11:36;;;;;;;0.60;0.60;;;19.30;99.90;;;;;;4976549;28;20242;-69
2022/08/07 05:14:10;;;;;;;0.40;0.40;;;19.10;99.90;;;;;;4957975;28;20612;-69
2022/08/07 05:16:40;;;;;;;0.20;0.20;;;18.90;99.90;;;;;;4976600;28;20183;-69
2022/08/07 05:19:18;;;;;;;0.43;0.40;;;19.00;99.90;;;;;;4991229;28;20273;-68
2022/08/07 05:21:52;;;;;;;0.63;0.60;;;18.80;99.90;;;;;;4976291;28;20175;-69
2022/08/07 05:24:23;;;;;;;0.40;0.40;;;18.50;99.90;;;;;;4976072;28;20214;-68
2022/08/07 05:26:54;;;;;;;0.70;0.50;;;18.40;99.90;;;;;;4975717;28;20167;-68
2022/08/07 05:29:23;;;;;;;0.40;0.40;;;18.40;99.90;;;;;;4976199;28;20199;-68
2022/08/07 05:31:55;;;;;;;0.80;0.50;;;18.60;99.90;;;;;;4975837;28;20178;-71
2022/08/07 05:34:23;;;;;;;0.60;0.40;;;18.60;99.90;;;;;;4976113;28;20183;-69
2022/08/07 05:36:52;;;;;;;1.07;0.60;;;18.70;99.90;;;;;;4975876;28;20180;-69
2022/08/07 05:39:22;;;;;;;0.77;0.50;;;18.80;99.90;;;;;;4975729;28;20226;-73
2022/08/07 05:41:51;;;;;;;0.63;0.53;;;18.80;99.90;;;;;;4976276;28;20178;-68
2022/08/07 05:44:19;;;;;;;0.60;0.60;;;18.70;99.90;;;;;;4975990;28;20239;-72
2022/08/07 05:46:50;;;;;;;0.50;0.50;;;18.50;99.90;;;;;;4975940;28;20177;-68
2022/08/07 05:49:19;;;;;;;4.53;0.97;;;18.50;99.90;;;;;;4975482;28;20215;-71
2022/08/07 05:51:46;;;;;;;1.43;0.70;;;18.50;99.90;;;;;;4975951;28;20172;-72
2022/08/07 05:54:17;;;;;;;4.17;1.03;;;18.60;99.90;;;;;;4978150;28;20575;-71
2022/08/07 05:56:48;;;;;;;0.73;0.73;;;18.50;99.90;;;;;;4976337;28;20164;-68
2022/08/07 05:59:21;;;;;;;1.40;0.87;;;18.40;99.90;;;;;;4976277;28;20179;-72
2022/08/07 06:01:50;;;;;;;1.73;0.90;;;18.10;99.90;;;;;;4975137;28;20223;-69
2022/08/07 06:04:21;;;;;;;2.60;1.00;;;17.80;99.90;;;;;;4975401;28;20207;-70
2022/08/07 06:06:49;;;;;;;2.10;1.20;;;17.60;99.90;;;;;;4974890;28;20279;-70
2022/08/07 06:09:17;;;;;;;2.20;1.23;;;17.50;99.90;;;;;;4977138;28;20175;-71
2022/08/07 06:11:45;;;;;;;1.83;0.97;;;17.40;99.90;;;;;;4977057;28;20219;-68
2022/08/07 06:14:13;;;;;;;2.03;0.80;;;17.20;99.90;;;;;;4980699;28;20179;-67
2022/08/07 06:16:43;;;;;;;1.57;1.10;;;17.10;99.90;;;;;;4994281;28;20175;-68
2022/08/07 06:19:12;;;;;;;1.43;0.90;;;16.90;99.90;;;;;;4996681;28;20199;-69
2022/08/07 06:21:41;;;;;;;1.50;1.17;;;16.80;99.90;;;;;;4997825;28;20194;-68
2022/08/07 06:24:08;;;;;;;1.20;1.10;;;16.70;99.90;;;;;;4992170;28;20690;-67
2022/08/07 06:26:39;;;;;;;5.70;1.20;;;16.50;99.90;;;;;;4995357;28;20213;-68
2022/08/07 06:29:07;;;;;;;1.93;1.40;;;16.40;99.90;;;;;;4995526;28;20193;-70
2022/08/07 06:31:35;;;;;;;3.77;1.40;;;16.30;99.90;;;;;;4985344;28;20183;-69
2022/08/07 06:34:03;;;;;;;4.47;1.40;;;16.10;99.90;;;;;;4975818;28;20231;-68
2022/08/07 06:36:33;;;;;;;2.40;1.43;;;16.10;99.90;;;;;;4975639;28;20179;-68
2022/08/07 06:39:00;;;;;;;1.60;1.20;;;16.10;99.90;;;;;;4975256;28;20175;-70
2022/08/07 06:41:42;;;;;;;2.13;1.10;;;16.20;99.90;;;;;;4980869;28;20187;-67
2022/08/07 06:44:12;;;;;;;3.17;1.33;;;16.30;99.90;;;;;;4994643;28;20202;-67
2022/08/07 06:46:40;;;;;;;3.90;1.30;;;16.30;99.90;;;;;;4993900;28;20191;-72
2022/08/07 06:49:08;;;;;;;3.57;1.40;;;16.30;99.90;;;;;;4994611;28;20198;-72
2022/08/07 06:51:39;;;;;;;2.20;1.40;;;16.30;99.90;;;;;;4987391;28;20191;-69
2022/08/07 06:54:09;;;;;;;3.87;2.20;;;16.10;99.90;;;;;;4974636;28;20189;-69
2022/08/07 06:56:45;;;;;;;4.17;1.83;;;16.00;99.90;;;;;;4975866;28;20247;-70
2022/08/07 06:59:29;;;;;;;7.80;3.77;;;16.00;99.90;;;;;;4975756;28;20183;-71
2022/08/07 07:01:57;;;;;;;1.90;1.60;;;15.90;99.90;;;;;;4984520;28;20188;-71
2022/08/07 07:04:25;;;;;;;4.77;1.60;;;15.90;99.90;;;;;;4992319;28;20222;-71
2022/08/07 07:06:56;;;;;;;4.70;1.27;;;15.90;99.90;;;;;;4975200;28;20693;-68
2022/08/07 07:09:25;;;;;;;3.83;1.70;;;15.90;99.90;;;;;;4974534;28;20187;-69
2022/08/07 07:12:07;;;;;;;2.80;1.60;;;15.90;99.90;;;;;;4982802;28;20681;-71
2022/08/07 07:15:00;;;;;;;3.23;1.50;;;15.90;99.90;;;;;;4993726;28;20689;-70
2022/08/07 07:17:52;;;;;;;1.90;1.40;;;15.80;99.90;;;;;;4993667;28;20321;-72
2022/08/07 07:20:25;;;;;;;2.30;1.20;;;15.70;99.90;;;;;;4977524;28;20327;-66
2022/08/07 07:22:54;;;;;;;4.47;3.17;;;15.50;99.90;;;;;;4977277;28;20649;-68
2022/08/07 07:25:22;;;;;;;2.87;2.50;;;15.30;99.90;;;;;;4993999;28;20248;-70
2022/08/07 07:28:11;;;;;;;7.43;2.47;;;15.20;99.90;;;;;;4977321;28;20182;-67
2022/08/07 07:30:42;;;;;;;3.37;1.43;;;15.00;99.90;;;;;;4993887;28;20216;-72
2022/08/07 07:33:13;;;;;;;2.40;1.80;;;14.80;99.90;;;;;;4992799;28;20175;-71
2022/08/07 07:35:47;;;;;;;3.97;2.80;;;14.70;99.90;;;;;;4993437;28;20239;-71
2022/08/07 07:38:19;;;;;;;2.30;1.87;;;14.50;99.90;;;;;;4993434;28;20557;-69
2022/08/07 07:40:50;;;;;;;2.00;1.80;;;14.30;99.90;;;;;;4993025;28;20171;-69
2022/08/07 07:43:17;;;;;;;10.00;5.27;;;14.20;99.90;;;;;;4973841;28;20218;-70
2022/08/07 07:45:48;;;;;;;9.23;4.73;;;14.00;99.90;;;;;;4974625;28;20227;-67
2022/08/07 07:48:20;;;;;;;10.50;7.23;;;13.90;99.90;;;;;;4973016;28;20222;-69
2022/08/07 07:50:50;;;;;;;12.53;9.03;;;13.90;99.90;;;;;;4973539;28;20206;-69
2022/08/07 07:53:20;;;;;;;10.37;6.93;;;13.70;99.90;;;;;;4992117;28;20558;-69
2022/08/07 07:55:49;;;;;;;16.87;10.87;;;13.60;99.90;;;;;;4992750;28;20185;-69
2022/08/07 07:58:17;;;;;;;16.87;10.83;;;13.60;99.90;;;;;;4992732;28;20188;-72
2022/08/07 08:00:46;;;;;;;13.30;7.20;;;13.50;99.90;;;;;;4982389;28;20192;-69
2022/08/07 08:03:18;;;;;;;10.73;6.47;;;13.40;99.90;;;;;;4991610;28;20193;-71
2022/08/07 08:05:46;;;;;;;10.47;6.30;;;13.30;99.90;;;;;;4984974;28;20241;-68
2022/08/07 08:08:17;;;;;;;6.60;4.50;;;13.20;99.90;;;;;;4972374;28;20198;-70
2022/08/07 08:10:45;;;;;;;4.30;2.90;;;13.20;99.90;;;;;;4988576;28;20295;-72
2022/08/07 08:13:14;;;;;;;5.53;2.53;;;13.20;99.90;;;;;;4992531;28;20203;-73
2022/08/07 08:15:46;;;;;;;4.93;2.57;;;13.10;99.90;;;;;;5000719;28;20547;-71
2022/08/07 08:18:14;;;;;;;6.33;2.80;;;13.10;99.90;;;;;;5012046;28;20580;-68
2022/08/07 08:20:43;;;;;;;4.67;2.40;;;13.10;99.90;;;;;;5012200;28;20176;-72
2022/08/07 08:28:52;;;;;;;5.60;2.30;;;13.00;99.90;;;;;;4981815;28;20228;-68
2022/08/07 08:31:40;;;;;;;5.27;2.47;;;12.90;99.90;;;;;;4977246;28;20219;-72
2022/08/07 08:34:09;;;;;;;4.57;2.50;;;12.90;99.90;;;;;;4981177;28;20236;-68
2022/08/07 08:36:39;;;;;;;4.23;2.43;;;12.80;99.90;;;;;;4995460;28;20250;-69
2022/08/07 08:39:09;;;;;;;5.33;2.73;;;12.70;99.90;;;;;;4995934;28;20552;-69
2022/08/07 08:41:39;;;;;;;6.37;3.57;;;12.60;99.90;;;;;;4989826;28;20197;-72
2022/08/07 08:44:11;;;;;;;5.67;3.30;;;12.60;99.90;;;;;;4992514;28;20611;-74
2022/08/07 08:47:06;;;;;;;8.27;3.40;;;12.60;99.90;;;;;;4996052;28;20177;-67
2022/08/07 08:49:46;;;;;;;7.10;3.33;;;12.60;99.90;;;;;;4996068;28;20299;-71
2022/08/07 08:52:31;;;;;;;7.63;3.23;;;12.60;99.90;;;;;;4995084;28;20184;-69
2022/08/07 08:55:07;;;;;;;5.60;3.07;;;12.60;99.90;;;;;;4981743;28;20195;-68
2022/08/07 08:58:05;;;;;;;6.00;2.90;;;12.60;99.90;;;;;;4997122;28;20219;-69
2022/08/07 09:00:41;;;;;;;8.37;3.80;;;12.60;99.90;;;;;;4997141;28;20180;-67
2022/08/07 09:03:38;;;;;;;8.83;4.00;;;12.50;99.90;;;;;;4989079;28;20205;-69
2022/08/07 09:06:46;;;;;;;7.80;3.97;;;12.40;99.90;;;;;;4977478;28;20608;-70
2022/08/07 09:09:59;;;;;;;14.13;4.70;;;12.40;99.90;;;;;;4969872;28;20204;-71
2022/08/07 09:12:26;;;;;;;8.87;4.50;;;12.40;99.90;;;;;;4953839;29;20189;-70
2022/08/07 09:15:11;;;;;;;8.50;4.40;;;12.40;99.90;;;;;;4937223;28;20194;-71
2022/08/07 09:18:17;;;;;;;10.73;5.53;;;12.40;99.90;;;;;;4976750;28;20205;-67
2022/08/07 09:21:18;;;;;;;8.43;5.40;;;12.40;99.90;;;;;;4991635;28;20628;-70
2022/08/07 09:24:13;;;;;;;7.50;5.27;;;12.30;99.90;;;;;;4978325;28;20186;-68
2022/08/07 09:26:46;;;;;;;8.87;4.83;;;12.30;99.90;;;;;;4997143;28;20190;-71
2022/08/07 09:29:39;;;;;;;10.57;5.07;;;12.20;99.90;;;;;;4997527;28;20207;-70
2022/08/07 09:32:13;;;;;;;8.07;4.57;;;12.20;99.90;;;;;;4954475;28;20202;-70
2022/08/07 09:35:19;;;;;;;5.47;4.20;;;12.10;99.90;;;;;;4977451;28;20185;-68
2022/08/07 09:38:10;;;;;;;5.67;3.50;;;12.00;99.90;;;;;;4977155;28;20188;-69
2022/08/07 09:40:43;;;;;;;7.93;3.97;;;11.90;99.90;;;;;;4977154;28;20186;-68
2022/08/07 09:43:26;;;;;;;8.23;4.43;;;11.80;99.90;;;;;;4980637;28;20216;-71
2022/08/07 09:46:01;;;;;;;6.73;4.63;;;11.80;99.90;;;;;;4977713;28;20215;-71
2022/08/07 09:48:54;;;;;;;8.27;4.20;;;11.70;99.90;;;;;;4979781;28;20235;-67
2022/08/07 09:51:40;;;;;;;6.80;3.53;;;11.70;99.90;;;;;;4977165;28;20641;-70
2022/08/07 09:54:29;;;;;;;9.33;4.20;;;11.70;99.90;;;;;;4977353;28;20663;-69
2022/08/07 09:57:40;;;;;;;8.87;4.50;;;11.70;99.90;;;;;;4977176;28;20209;-68
2022/08/07 10:00:24;;;;;;;6.27;3.50;;;11.70;99.90;;;;;;4967008;28;20226;-69
2022/08/07 10:03:00;;;;;;;4.27;3.40;;;11.70;99.90;;;;;;4987074;28;20673;-68
2022/08/07 10:06:02;;;;;;;5.80;3.53;;;11.70;99.90;;;;;;4996263;28;20629;-67
2022/08/07 10:08:47;;;;;;;9.07;3.53;;;11.70;99.90;;;;;;4996456;28;20184;-69
2022/08/07 10:11:44;;;;;;;6.53;3.53;;;11.60;99.90;;;;;;4997045;28;20270;-67
2022/08/07 10:14:33;;;;;;;6.57;4.07;;;11.60;99.90;;;;;;4951954;28;20223;-70
2022/08/07 10:17:34;;;;;;;5.43;3.80;;;11.60;99.90;;;;;;4982856;28;20246;-68
2022/08/07 10:20:14;;;;;;;9.97;4.03;;;11.60;99.90;;;;;;4984490;28;20188;-69
2022/08/07 10:22:50;;;;;;;6.40;3.77;;;11.70;99.90;;;;;;4977085;28;20174;-70
2022/08/07 10:25:43;;;;;;;7.27;4.40;;;11.70;99.90;;;;;;4991940;28;20220;-71
2022/08/07 10:28:24;;;;;;;8.57;5.73;;;11.70;99.90;;;;;;4976801;28;20647;-70
2022/08/07 10:31:09;;;;;;;7.20;5.33;;;11.70;99.90;;;;;;4992456;28;20201;-72
2022/08/07 10:33:51;;;;;;;8.60;5.63;;;11.60;99.90;;;;;;4997251;28;20222;-71
2022/08/07 10:36:46;;;;;;;8.30;5.40;;;11.60;99.90;;;;;;4996936;28;20175;-72
2022/08/07 10:39:25;;;;;;;8.20;4.10;;;11.50;99.90;;;;;;5004050;28;20192;-69
2022/08/07 10:42:18;;;;;;;7.67;3.80;;;11.50;99.90;;;;;;5019980;28;20186;-69
2022/08/07 10:44:48;;;;;;;5.73;3.60;;;11.50;99.90;;;;;;5019701;28;20219;-69
2022/08/07 10:47:45;;;;;;;3.80;2.70;;;11.40;99.90;;;;;;5003839;28;20221;-67
2022/08/07 10:50:23;;;;;;;4.77;2.90;;;11.40;99.90;;;;;;4988959;28;20196;-67
2022/08/07 10:53:08;;;;;;;5.50;2.50;;;11.50;99.90;;;;;;4997949;28;20185;-68
2022/08/07 10:55:52;;;;;;;3.07;2.30;;;11.50;99.90;;;;;;4995010;28;20284;-70
2022/08/07 10:58:46;;;;;;;4.03;2.50;;;11.60;99.90;;;;;;4994818;28;20652;-69
2022/08/07 11:02:01;;;;;;;5.67;2.40;;;11.50;99.90;;;;;;4995020;28;20184;-71
2022/08/07 11:04:59;;;;;;;2.90;2.10;;;11.50;99.90;;;;;;4941928;28;20646;-69
2022/08/07 11:08:08;;;;;;;3.50;2.73;;;11.50;99.90;;;;;;4994734;28;20181;-68
2022/08/07 11:10:39;;;;;;;6.07;2.53;;;11.40;99.90;;;;;;4994788;28;20172;-71
2022/08/07 11:13:24;;;;;;;5.13;2.87;;;11.40;99.90;;;;;;4994923;28;20185;-70
2022/08/07 11:15:56;;;;;;;5.63;2.10;;;11.40;99.90;;;;;;4994898;28;20236;-70
2022/08/07 11:18:45;;;;;;;3.73;2.50;;;11.40;99.90;;;;;;4995207;28;20188;-70
2022/08/07 11:21:21;;;;;;;8.70;2.40;;;11.30;99.90;;;;;;4994849;28;20179;-70
2022/08/07 11:23:58;;;;;;;4.20;2.40;;;11.30;99.90;;;;;;4994844;28;20188;-70
2022/08/07 11:26:48;;;;;;;2.90;2.57;;;11.30;99.90;;;;;;4994896;28;20275;-71
2022/08/07 11:29:49;;;;;;;4.07;2.30;;;11.20;99.90;;;;;;4994136;28;20269;-70
2022/08/07 11:32:30;;;;;;;6.00;2.30;;;11.20;99.90;;;;;;4994430;28;20672;-70
2022/08/07 11:35:04;;;;;;;4.80;2.27;;;11.10;99.90;;;;;;4994476;28;20719;-70
2022/08/07 11:38:08;;;;;;;2.83;2.20;;;11.10;99.90;;;;;;4990365;28;20267;-68
2022/08/07 11:40:43;;;;;;;3.50;2.23;;;11.00;99.90;;;;;;4974787;28;20651;-70
2022/08/07 11:43:30;;;;;;;3.33;1.63;;;11.00;99.90;;;;;;4974610;28;20177;-68
2022/08/07 11:46:03;;;;;;;5.33;2.50;;;11.00;99.90;;;;;;4980659;28;20221;-70
2022/08/07 11:48:56;;;;;;;4.30;2.00;;;10.90;99.90;;;;;;4994157;28;20235;-67
2022/08/07 11:51:31;;;;;;;3.33;2.13;;;11.00;99.90;;;;;;4994233;28;20210;-68
2022/08/07 11:54:04;;;;;;;5.80;2.60;;;11.00;99.90;;;;;;4993180;28;20183;-67
2022/08/07 11:56:50;;;;;;;5.07;2.87;;;11.00;99.90;;;;;;4983372;28;20238;-71
2022/08/07 11:59:29;;;;;;;4.43;2.87;;;10.90;99.90;;;;;;4983381;28;20183;-68
2022/08/07 12:02:14;;;;;;;3.17;2.70;;;10.90;99.90;;;;;;4993064;28;20262;-70
2022/08/07 12:05:13;;;;;;;6.70;2.70;;;10.90;99.90;;;;;;4994341;28;20212;-68
2022/08/07 12:08:06;;;;;;;4.83;2.67;;;10.90;99.90;;;;;;4956889;28;20200;-70
2022/08/07 12:10:44;;;;;;;3.50;2.33;;;10.80;99.90;;;;;;4977343;28;20187;-69
2022/08/07 12:14:02;;;;;;;4.43;2.80;;;10.80;99.90;;;;;;4989536;28;20652;-71
2022/08/07 12:16:42;;;;;;;6.70;3.77;;;10.80;99.90;;;;;;4952750;28;20280;-71
2022/08/07 12:19:27;;;;;;;5.60;4.00;;;10.60;99.90;;;;;;4986461;28;20184;-65
2022/08/07 12:22:36;;;;;;;2.97;2.40;;;10.60;99.90;;;;;;4992490;28;20191;-69
2022/08/07 12:28:37;;;;;;;3.83;2.57;;;10.60;99.90;;;;;;4974193;28;20282;-69
2022/08/07 12:31:40;;;;;;;10.77;3.30;;;10.60;99.90;;;;;;4944588;28;20712;-68
2022/08/07 12:34:10;;;;;;;4.43;3.20;;;10.50;99.90;;;;;;4974165;28;20263;-69
2022/08/07 12:36:39;;;;;;;6.87;2.97;;;10.50;99.90;;;;;;4974367;28;20183;-68
2022/08/07 12:39:09;;;;;;;5.67;2.73;;;10.50;99.90;;;;;;4974109;28;20240;-72
2022/08/07 12:41:38;;;;;;;4.13;2.60;;;10.50;99.90;;;;;;4974302;28;20179;-68
2022/08/07 12:44:09;;;;;;;3.40;2.40;;;10.50;99.90;;;;;;4980371;28;20181;-68
2022/08/07 12:47:07;;;;;;;3.57;2.33;;;10.50;99.90;;;;;;4982990;28;20202;-70
2022/08/07 12:49:51;;;;;;;4.83;2.60;;;10.50;99.90;;;;;;4974252;28;20560;-70
2022/08/07 12:52:43;;;;;;;4.50;2.83;;;10.50;99.90;;;;;;4975531;28;20234;-67
2022/08/07 12:55:37;;;;;;;5.53;2.87;;;10.40;99.90;;;;;;4936061;28;20192;-71
2022/08/07 12:58:07;;;;;;;3.83;2.60;;;10.40;99.90;;;;;;4975592;28;20197;-69
2022/08/07 13:00:51;;;;;;;4.27;3.10;;;10.30;99.90;;;;;;4975098;28;20264;-71
2022/08/07 13:03:59;;;;;;;3.80;2.67;;;10.40;99.90;;;;;;4974894;28;20176;-68
2022/08/07 13:06:50;;;;;;;3.70;2.30;;;10.40;99.90;;;;;;4902677;29;20191;-68
2022/08/07 13:10:07;;;;;;;3.50;2.30;;;10.30;99.90;;;;;;4915152;29;20189;-71
2022/08/07 13:13:13;;;;;;;2.70;2.13;;;10.30;99.90;;;;;;4898347;28;20314;-68
2022/08/07 13:16:01;;;;;;;3.07;2.00;;;10.30;99.90;;;;;;4996682;28;20657;-68
2022/08/07 13:18:43;;;;;;;4.43;2.30;;;10.20;99.90;;;;;;4997573;28;20190;-71
2022/08/07 13:21:20;;;;;;;6.33;1.87;;;10.30;99.90;;;;;;4997246;28;20591;-71
2022/08/07 13:24:00;;;;;;;2.80;2.27;;;10.30;99.90;;;;;;4989062;28;20227;-70
2022/08/07 13:26:59;;;;;;;3.20;2.13;;;10.30;99.90;;;;;;4983753;28;20662;-70
2022/08/07 13:29:36;;;;;;;7.57;3.63;;;10.30;99.90;;;;;;4973531;28;20658;-71
2022/08/07 13:32:25;;;;;;;4.53;2.90;;;10.30;99.90;;;;;;4984562;28;20281;-68
2022/08/07 13:34:56;;;;;;;4.57;2.60;;;10.30;99.90;;;;;;4979467;28;20294;-67
2022/08/07 13:37:49;;;;;;;3.47;2.33;;;10.30;99.90;;;;;;4983771;28;20587;-70
2022/08/07 13:40:48;;;;;;;3.53;1.90;;;10.30;99.90;;;;;;4993281;28;20630;-70
2022/08/07 13:43:19;;;;;;;3.63;2.30;;;10.30;99.90;;;;;;4997691;28;20182;-67